Time;durP1;ratioP1;P1;durP2;ratioP2;P2;SDS_P1;SDS_P2;PMS_P1;PMS_P2;Temp;Humidity;BMP_temperature;BMP_pressure;BME280_temperature;BME280_humidity;BME280_pressure;Samples;Min_cycle;Max_cycle;Signal;HPM_P1;HPM_P2
2022/04/20 00:00:41;;;;;;;3.55;2.00;;;21.30;46.30;;;;;;4916628;29;20036;-75
2022/04/20 00:03:07;;;;;;;3.30;1.85;;;21.30;46.20;;;;;;4916879;29;20039;-75
2022/04/20 00:05:33;;;;;;;3.35;1.98;;;21.30;46.20;;;;;;4917921;29;20032;-75
2022/04/20 00:08:00;;;;;;;3.60;2.13;;;21.30;46.20;;;;;;4917700;29;20072;-74
2022/04/20 00:10:27;;;;;;;3.72;1.92;;;21.30;46.20;;;;;;4917584;29;20040;-75
2022/04/20 00:12:53;;;;;;;3.72;2.05;;;21.40;46.20;;;;;;4917802;29;20044;-75
2022/04/20 00:15:19;;;;;;;2.67;1.80;;;21.30;46.10;;;;;;4917722;29;20545;-74
2022/04/20 00:17:45;;;;;;;4.45;2.15;;;21.30;46.10;;;;;;4916263;29;20032;-74
2022/04/20 00:20:10;;;;;;;2.70;1.70;;;21.30;46.20;;;;;;4900523;29;20056;-74
2022/04/20 00:22:36;;;;;;;4.32;2.10;;;21.30;46.10;;;;;;4916122;29;20083;-75
2022/04/20 00:25:02;;;;;;;3.28;1.73;;;21.30;46.10;;;;;;4917635;29;20024;-74
2022/04/20 00:27:33;;;;;;;2.75;1.80;;;21.30;46.10;;;;;;4916086;29;20032;-74
2022/04/20 00:29:59;;;;;;;3.03;1.92;;;21.30;46.20;;;;;;4916694;29;20071;-74
2022/04/20 00:32:24;;;;;;;2.60;1.73;;;21.30;46.20;;;;;;4900735;29;20071;-74
2022/04/20 00:34:50;;;;;;;3.22;1.85;;;21.30;46.20;;;;;;4916085;29;20039;-74
2022/04/20 00:37:16;;;;;;;3.40;1.85;;;21.30;46.20;;;;;;4915762;29;20023;-74
2022/04/20 00:39:42;;;;;;;3.13;1.90;;;21.30;46.20;;;;;;4916002;29;20031;-74
2022/04/20 00:42:08;;;;;;;2.20;1.70;;;21.30;46.20;;;;;;4917353;29;20031;-74
2022/04/20 00:44:34;;;;;;;2.63;1.70;;;21.30;46.20;;;;;;4916023;29;20516;-74
2022/04/20 00:47:02;;;;;;;4.20;2.00;;;21.30;46.20;;;;;;4917408;29;20112;-74
2022/04/20 00:49:30;;;;;;;2.75;1.60;;;21.30;46.20;;;;;;4884707;29;20035;-74
2022/04/20 00:52:00;;;;;;;2.70;1.77;;;21.30;46.30;;;;;;4884573;29;20060;-74
2022/04/20 00:54:28;;;;;;;2.60;1.70;;;21.30;46.20;;;;;;4915820;29;20036;-74
2022/04/20 00:56:55;;;;;;;2.83;1.65;;;21.30;46.10;;;;;;4915759;29;20051;-74
2022/04/20 00:59:28;;;;;;;2.30;1.60;;;21.30;46.20;;;;;;4915352;29;20040;-74
2022/04/20 01:01:54;;;;;;;3.08;1.60;;;21.30;46.20;;;;;;4915556;29;20028;-74
2022/04/20 01:04:21;;;;;;;3.20;1.92;;;21.30;46.20;;;;;;4915828;29;20032;-74
2022/04/20 01:07:12;;;;;;;3.97;1.60;;;21.30;46.20;;;;;;4915336;29;20035;-74
2022/04/20 01:09:56;;;;;;;2.67;1.90;;;21.30;46.20;;;;;;4916499;29;20044;-75
2022/04/20 01:12:45;;;;;;;3.08;1.80;;;21.30;46.20;;;;;;4916627;29;20561;-74
2022/04/20 01:15:19;;;;;;;3.30;1.80;;;21.30;46.20;;;;;;4917028;29;20107;-74
2022/04/20 01:18:12;;;;;;;2.35;1.55;;;21.30;46.20;;;;;;4902169;29;20503;-74
2022/04/20 01:20:47;;;;;;;;;;;21.30;46.20;;;;;;4916068;29;20429;-74
2022/04/20 01:23:26;;;;;;;3.60;1.60;;;21.30;46.20;;;;;;4915513;29;19971;-73
2022/04/20 01:26:08;;;;;;;2.55;1.67;;;21.30;46.20;;;;;;4916450;29;20036;-74
2022/04/20 01:28:51;;;;;;;2.92;1.60;;;21.30;46.10;;;;;;4899291;29;20051;-73
2022/04/20 01:31:33;;;;;;;3.03;1.60;;;21.30;46.20;;;;;;4915102;29;20129;-73
2022/04/20 01:34:08;;;;;;;3.70;1.55;;;21.30;46.20;;;;;;4899691;29;20392;-74
2022/04/20 01:36:34;;;;;;;3.22;1.70;;;21.30;46.20;;;;;;4915008;29;20099;-75
2022/04/20 01:38:59;;;;;;;2.28;1.55;;;21.30;46.10;;;;;;4914652;29;20386;-74
2022/04/20 01:41:25;;;;;;;3.38;1.83;;;21.30;46.20;;;;;;4899325;29;20072;-74
2022/04/20 01:43:51;;;;;;;3.60;1.45;;;21.30;46.20;;;;;;4915005;29;20035;-74
2022/04/20 01:46:21;;;;;;;;;;;21.30;46.20;;;;;;4915189;29;20024;-74
2022/04/20 01:49:03;;;;;;;1.90;1.55;;;21.30;46.20;;;;;;4914605;29;20002;-74
2022/04/20 01:51:47;;;;;;;2.13;1.50;;;21.30;46.20;;;;;;4915975;29;20036;-74
2022/04/20 01:54:31;;;;;;;2.20;1.45;;;21.30;46.20;;;;;;4915925;29;20035;-74
2022/04/20 01:57:07;;;;;;;3.92;2.03;;;21.30;46.20;;;;;;4914412;29;20042;-75
2022/04/20 02:00:02;;;;;;;4.10;1.90;;;21.30;46.20;;;;;;4915170;29;20040;-74
2022/04/20 02:02:46;;;;;;;2.55;1.50;;;21.30;46.20;;;;;;4915703;29;20028;-74
2022/04/20 02:05:38;;;;;;;2.33;1.60;;;21.30;46.20;;;;;;4912981;29;20036;-74
2022/04/20 02:08:17;;;;;;;2.65;1.60;;;21.30;46.30;;;;;;4914215;29;20036;-74
2022/04/20 02:11:08;;;;;;;4.05;1.58;;;21.30;46.30;;;;;;4914108;29;20495;-74
2022/04/20 02:13:34;;;;;;;2.28;1.50;;;21.30;46.20;;;;;;4914379;29;20040;-75
2022/04/20 02:16:03;;;;;;;2.28;1.50;;;21.30;46.20;;;;;;4914700;29;20397;-74
2022/04/20 02:19:04;;;;;;;2.85;1.70;;;21.30;46.20;;;;;;4914139;29;20060;-74
2022/04/20 02:22:02;;;;;;;2.15;1.52;;;21.30;46.20;;;;;;4914963;29;20482;-74
2022/04/20 02:24:28;;;;;;;2.88;1.63;;;21.30;46.20;;;;;;4914325;29;20060;-74
2022/04/20 02:26:54;;;;;;;2.80;1.52;;;21.30;46.20;;;;;;4914119;29;20031;-74
2022/04/20 02:29:19;;;;;;;2.67;1.60;;;21.30;46.20;;;;;;4898004;29;20031;-74
2022/04/20 02:31:45;;;;;;;3.17;1.60;;;21.30;46.20;;;;;;4898418;29;20059;-74
2022/04/20 02:34:11;;;;;;;2.42;1.67;;;21.30;46.20;;;;;;4898676;29;20103;-74
2022/04/20 02:36:36;;;;;;;3.45;1.55;;;21.30;46.30;;;;;;4898637;29;20066;-74
2022/04/20 02:39:04;;;;;;;2.67;1.52;;;21.30;46.30;;;;;;4913953;29;20040;-75
2022/04/20 02:41:32;;;;;;;2.75;1.73;;;21.30;46.20;;;;;;4914318;29;20214;-74
2022/04/20 02:43:57;;;;;;;2.60;1.67;;;21.30;46.20;;;;;;4915169;29;20033;-74
2022/04/20 02:46:23;;;;;;;2.22;1.50;;;21.30;46.30;;;;;;4914047;29;20504;-74
2022/04/20 02:48:50;;;;;;;2.75;1.48;;;21.30;46.30;;;;;;4913674;29;20035;-74
2022/04/20 02:51:15;;;;;;;3.33;1.50;;;21.30;46.20;;;;;;4913977;29;20039;-74
2022/04/20 02:53:42;;;;;;;3.65;2.05;;;21.30;46.20;;;;;;4913815;29;20028;-74
2022/04/20 02:56:09;;;;;;;5.43;1.60;;;21.30;46.20;;;;;;4914189;29;20524;-74
2022/04/20 02:58:34;;;;;;;3.85;1.92;;;21.30;46.30;;;;;;4897828;29;20059;-74
2022/04/20 03:01:00;;;;;;;2.75;1.75;;;21.30;46.30;;;;;;4914001;29;20515;-74
2022/04/20 03:03:39;;;;;;;1.98;1.45;;;21.20;46.20;;;;;;4913886;29;20028;-74
2022/04/20 03:06:37;;;;;;;2.05;1.40;;;21.20;46.40;;;;;;4908494;29;20028;-74
2022/04/20 03:09:10;;;;;;;2.55;1.65;;;21.30;46.30;;;;;;4912984;29;20029;-74
2022/04/20 03:11:40;;;;;;;2.53;1.50;;;21.20;46.20;;;;;;4913842;29;20556;-74
2022/04/20 03:14:05;;;;;;;2.47;1.50;;;21.30;46.30;;;;;;4898421;29;20032;-74
2022/04/20 03:16:32;;;;;;;2.50;1.40;;;21.30;46.30;;;;;;4898190;29;20032;-74
2022/04/20 03:18:59;;;;;;;2.80;1.55;;;21.20;46.20;;;;;;4913327;29;20405;-73
2022/04/20 03:21:27;;;;;;;2.80;1.70;;;21.30;46.30;;;;;;4898309;29;20040;-73
2022/04/20 03:23:58;;;;;;;2.25;1.30;;;21.30;46.30;;;;;;4917359;29;20123;-73
2022/04/20 03:26:45;;;;;;;2.78;1.65;;;21.30;46.30;;;;;;4917419;29;20043;-74
2022/04/20 03:29:24;;;;;;;3.83;2.05;;;21.30;46.30;;;;;;4918331;29;20032;-73
2022/04/20 03:31:50;;;;;;;2.30;1.60;;;21.30;46.20;;;;;;4917330;29;20039;-73
2022/04/20 03:34:15;;;;;;;2.95;1.70;;;21.30;46.20;;;;;;4918330;29;20040;-73
2022/04/20 03:36:41;;;;;;;3.58;1.80;;;21.30;46.20;;;;;;4901647;29;20092;-73
2022/04/20 03:39:07;;;;;;;2.28;1.50;;;21.20;46.30;;;;;;4916724;29;20028;-73
2022/04/20 03:41:32;;;;;;;3.35;1.65;;;21.30;46.20;;;;;;4917194;29;20039;-73
2022/04/20 03:43:58;;;;;;;3.17;1.83;;;21.30;46.20;;;;;;4917132;29;20040;-73
2022/04/20 03:46:24;;;;;;;2.47;1.50;;;21.30;46.30;;;;;;4917175;29;20115;-73
2022/04/20 03:48:50;;;;;;;2.67;1.60;;;21.30;46.30;;;;;;4916759;29;20040;-73
2022/04/20 03:51:16;;;;;;;2.08;1.42;;;21.20;46.20;;;;;;4916957;29;20087;-73
2022/04/20 03:53:42;;;;;;;2.60;1.50;;;21.20;46.20;;;;;;4901241;29;20331;-73
2022/04/20 03:56:08;;;;;;;2.88;1.75;;;21.20;46.20;;;;;;4901469;29;20043;-73
2022/04/20 03:58:36;;;;;;;3.58;1.70;;;21.20;46.20;;;;;;4916387;29;20087;-73
2022/04/20 04:01:03;;;;;;;2.75;1.67;;;21.30;46.80;;;;;;4916759;29;20498;-73
2022/04/20 04:03:29;;;;;;;2.33;1.48;;;21.20;46.30;;;;;;4917766;29;20062;-74
2022/04/20 04:06:45;;;;;;;2.65;1.50;;;21.20;46.20;;;;;;4916902;29;20032;-73
2022/04/20 04:09:29;;;;;;;4.22;2.05;;;21.20;46.20;;;;;;4916285;29;20028;-73
2022/04/20 04:11:55;;;;;;;2.15;1.60;;;21.20;46.30;;;;;;4901125;29;20063;-73
2022/04/20 04:14:22;;;;;;;1.98;1.50;;;21.30;46.30;;;;;;4916548;29;20497;-73
2022/04/20 04:16:49;;;;;;;1.83;1.42;;;21.20;46.20;;;;;;4900859;29;20548;-72
2022/04/20 04:19:15;;;;;;;2.22;1.48;;;21.30;46.30;;;;;;4915991;29;20028;-73
2022/04/20 04:21:42;;;;;;;1.83;1.45;;;21.20;46.20;;;;;;4900940;29;20029;-73
2022/04/20 04:24:09;;;;;;;4.20;1.80;;;21.30;46.20;;;;;;4916387;29;20556;-73
2022/04/20 04:26:44;;;;;;;2.03;1.58;;;21.20;46.30;;;;;;4916401;29;20160;-72
2022/04/20 04:29:13;;;;;;;2.88;1.60;;;21.30;46.30;;;;;;4900626;29;20051;-73
2022/04/20 04:31:42;;;;;;;2.53;1.55;;;21.30;46.30;;;;;;4916432;29;20479;-73
2022/04/20 04:34:08;;;;;;;3.22;1.60;;;21.30;47.00;;;;;;4900444;29;20405;-72
2022/04/20 04:36:33;;;;;;;2.50;1.50;;;21.30;46.30;;;;;;4916219;29;20034;-72
2022/04/20 04:39:00;;;;;;;2.78;1.75;;;21.30;46.30;;;;;;4915593;29;20043;-73
2022/04/20 04:41:30;;;;;;;2.75;1.60;;;21.30;46.30;;;;;;4917333;29;20087;-74
2022/04/20 04:43:59;;;;;;;2.43;1.70;;;21.30;46.40;;;;;;4916125;29;20096;-74
2022/04/20 04:49:14;;;;;;;3.42;1.70;;;21.20;46.30;;;;;;4915639;29;20154;-73
2022/04/20 04:51:41;;;;;;;2.08;1.38;;;21.20;46.20;;;;;;4900353;29;20107;-73
2022/04/20 04:54:09;;;;;;;2.63;1.67;;;21.20;46.30;;;;;;4916106;29;20116;-73
2022/04/20 04:56:35;;;;;;;3.78;1.80;;;21.20;46.20;;;;;;4915902;29;20079;-74
2022/04/20 04:59:01;;;;;;;2.72;1.55;;;21.20;46.20;;;;;;4915264;29;20052;-74
2022/04/20 05:01:29;;;;;;;2.90;1.55;;;21.20;46.30;;;;;;4915876;29;20470;-74
2022/04/20 05:03:59;;;;;;;2.00;1.63;;;21.20;46.20;;;;;;4915603;29;20029;-74
2022/04/20 05:06:26;;;;;;;3.88;1.88;;;21.20;46.30;;;;;;4915793;29;20146;-74
2022/04/20 05:09:10;;;;;;;2.97;1.67;;;21.20;46.20;;;;;;4915056;29;20393;-74
2022/04/20 05:11:51;;;;;;;2.70;1.63;;;21.20;46.20;;;;;;4900533;29;20083;-75
2022/04/20 05:14:28;;;;;;;3.03;1.75;;;21.20;46.20;;;;;;4915550;29;20050;-75
2022/04/20 05:16:56;;;;;;;2.50;1.73;;;21.30;46.30;;;;;;4915505;29;20036;-75
2022/04/20 05:19:21;;;;;;;3.80;2.00;;;21.30;46.30;;;;;;4915022;29;20032;-75
2022/04/20 05:21:51;;;;;;;3.45;1.80;;;21.20;46.20;;;;;;4915442;29;20030;-76
2022/04/20 05:24:24;;;;;;;3.70;1.85;;;21.30;46.30;;;;;;4915245;29;20058;-76
2022/04/20 05:26:50;;;;;;;2.97;1.83;;;21.30;46.20;;;;;;4915328;29;20524;-75
2022/04/20 05:29:18;;;;;;;2.33;1.60;;;21.30;46.20;;;;;;4914695;29;20032;-76
2022/04/20 05:32:56;;;;;;;2.95;1.77;;;21.30;46.30;;;;;;4915107;29;20096;-76
2022/04/20 05:35:25;;;;;;;2.92;1.92;;;21.30;46.30;;;;;;4895481;29;20050;-76
2022/04/20 05:43:33;;;;;;;2.78;1.70;;;21.30;46.30;;;;;;4914972;29;20069;-75
2022/04/20 05:45:58;;;;;;;3.05;1.67;;;21.30;46.30;;;;;;4914363;29;20056;-75
2022/04/20 05:48:39;;;;;;;5.28;1.88;;;21.30;46.20;;;;;;4914954;29;20036;-75
2022/04/20 05:51:10;;;;;;;3.60;1.80;;;21.30;46.30;;;;;;4915099;29;20382;-76
2022/04/20 05:53:36;;;;;;;3.67;1.90;;;21.30;46.20;;;;;;4883565;29;20040;-75
2022/04/20 05:56:04;;;;;;;2.88;1.60;;;21.30;46.20;;;;;;4914990;29;20056;-75
2022/04/20 05:58:31;;;;;;;3.08;1.90;;;21.30;46.20;;;;;;4914497;29;20039;-75
2022/04/20 06:00:57;;;;;;;2.78;1.90;;;21.30;46.20;;;;;;4914655;29;20050;-76
2022/04/20 06:03:41;;;;;;;3.15;1.80;;;21.30;46.20;;;;;;4916029;29;20024;-75
2022/04/20 06:06:19;;;;;;;2.75;1.77;;;21.30;46.70;;;;;;4900505;29;20039;-75
2022/04/20 06:08:51;;;;;;;3.40;2.00;;;21.30;46.20;;;;;;4914267;29;20047;-76
2022/04/20 06:11:28;;;;;;;3.97;1.92;;;21.30;46.20;;;;;;4914663;29;20036;-76
2022/04/20 06:13:54;;;;;;;3.05;1.90;;;21.30;46.20;;;;;;4914409;29;20038;-76
2022/04/20 06:17:30;;;;;;;3.30;2.20;;;21.30;46.30;;;;;;4914738;29;20038;-76
2022/04/20 06:20:16;;;;;;;3.03;2.05;;;21.20;46.30;;;;;;4890616;29;20430;-76
2022/04/20 06:23:03;;;;;;;2.55;1.70;;;21.30;46.30;;;;;;4914446;29;20028;-76
2022/04/20 06:25:56;;;;;;;3.30;1.80;;;21.30;46.30;;;;;;4915425;29;20103;-75
2022/04/20 06:28:41;;;;;;;3.40;2.10;;;21.30;46.20;;;;;;4915605;29;20508;-75
2022/04/20 06:31:25;;;;;;;3.63;1.98;;;21.30;46.30;;;;;;4915437;29;20032;-75
2022/04/20 06:34:11;;;;;;;3.88;2.10;;;21.30;46.20;;;;;;4913816;29;20079;-76
2022/04/20 06:36:52;;;;;;;3.03;2.00;;;21.30;46.30;;;;;;4914148;29;20036;-75
2022/04/20 06:39:56;;;;;;;4.50;2.15;;;21.30;46.20;;;;;;4914293;29;20036;-76
2022/04/20 06:42:56;;;;;;;2.92;1.73;;;21.30;46.20;;;;;;4882709;29;20409;-76
2022/04/20 06:45:23;;;;;;;3.13;1.80;;;21.30;46.30;;;;;;4915254;29;20025;-76
2022/04/20 06:48:00;;;;;;;3.22;1.80;;;21.30;46.40;;;;;;4898445;29;20040;-76
2022/04/20 06:50:45;;;;;;;2.65;1.77;;;21.30;46.30;;;;;;4898206;29;20039;-76
2022/04/20 06:59:03;;;;;;;4.32;2.33;;;21.30;46.40;;;;;;4914790;29;20032;-76
2022/04/20 07:01:55;;;;;;;2.72;2.00;;;21.30;46.40;;;;;;4912638;29;20099;-75
2022/04/20 07:05:02;;;;;;;3.33;1.90;;;21.30;46.40;;;;;;4896908;29;20072;-75
2022/04/20 07:07:50;;;;;;;3.53;2.00;;;21.30;46.30;;;;;;4912148;29;20589;-75
2022/04/20 07:10:31;;;;;;;;;;;21.30;46.50;;;;;;4899935;29;20060;-76
2022/04/20 07:13:01;;;;;;;3.90;2.00;;;21.30;46.40;;;;;;4899009;29;19939;-75
2022/04/20 07:15:27;;;;;;;3.20;1.75;;;21.30;46.40;;;;;;4915012;29;20032;-75
2022/04/20 07:17:54;;;;;;;3.08;2.08;;;21.30;46.40;;;;;;4913488;29;20060;-75
2022/04/20 07:20:59;;;;;;;3.10;2.17;;;21.30;46.30;;;;;;4914446;29;20107;-75
2022/04/20 07:24:00;;;;;;;2.83;1.90;;;21.30;46.40;;;;;;4892796;29;20429;-75
2022/04/20 07:27:02;;;;;;;4.05;2.03;;;21.30;46.40;;;;;;4912408;29;20047;-75
2022/04/20 07:29:40;;;;;;;1.85;1.55;;;21.30;46.40;;;;;;4911400;29;20159;-75
2022/04/20 07:32:18;;;;;;;3.30;2.20;;;21.30;46.50;;;;;;4915165;29;20044;-75
2022/04/20 07:34:44;;;;;;;3.08;2.00;;;21.30;46.40;;;;;;4914936;29;20028;-76
2022/04/20 07:37:16;;;;;;;3.17;2.10;;;21.30;46.50;;;;;;4897856;29;20464;-76
2022/04/20 07:40:00;;;;;;;3.75;2.10;;;21.30;46.40;;;;;;4914836;29;20047;-75
2022/04/20 07:43:01;;;;;;;2.97;1.85;;;21.30;46.40;;;;;;4913942;29;20039;-76
2022/04/20 07:45:45;;;;;;;3.72;1.88;;;21.30;46.40;;;;;;4914600;29;20445;-76
2022/04/20 07:48:37;;;;;;;2.90;1.92;;;21.30;46.50;;;;;;4913476;29;20048;-76
2022/04/20 07:51:21;;;;;;;3.08;1.92;;;21.30;46.40;;;;;;4914650;29;20028;-75
2022/04/20 07:54:05;;;;;;;3.55;2.08;;;21.30;46.40;;;;;;4914621;29;20032;-75
2022/04/20 07:56:39;;;;;;;3.22;2.20;;;21.30;46.40;;;;;;4913293;29;20413;-75
2022/04/20 07:59:22;;;;;;;3.95;2.20;;;21.20;46.30;;;;;;4899347;29;20036;-75
2022/04/20 08:02:10;;;;;;;3.28;2.05;;;21.30;46.40;;;;;;4897920;29;20119;-76
2022/04/20 08:04:54;;;;;;;3.88;2.28;;;21.30;46.40;;;;;;4914581;29;20111;-76
2022/04/20 08:07:26;;;;;;;4.88;2.42;;;21.30;46.40;;;;;;4913273;29;20036;-75
2022/04/20 08:09:52;;;;;;;5.43;2.38;;;21.30;46.30;;;;;;4916469;29;20103;-76
2022/04/20 08:12:18;;;;;;;2.72;1.90;;;21.30;46.40;;;;;;4917807;29;20052;-75
2022/04/20 08:14:44;;;;;;;3.90;2.38;;;21.30;46.40;;;;;;4901266;29;20496;-75
2022/04/20 08:17:22;;;;;;;3.25;2.00;;;21.30;46.40;;;;;;4916182;29;20028;-75
2022/04/20 08:20:00;;;;;;;3.10;2.00;;;21.30;46.50;;;;;;4916528;29;20552;-75
2022/04/20 08:22:45;;;;;;;3.45;2.10;;;21.30;46.50;;;;;;4916667;29;20509;-75
2022/04/20 08:25:12;;;;;;;3.25;2.20;;;21.30;46.50;;;;;;4901032;29;20042;-75
2022/04/20 08:27:38;;;;;;;2.88;1.80;;;21.30;46.50;;;;;;4917414;29;20032;-74
2022/04/20 08:30:07;;;;;;;3.08;2.03;;;21.30;46.50;;;;;;4917445;29;20051;-75
2022/04/20 08:32:34;;;;;;;3.25;2.05;;;21.30;46.50;;;;;;4916369;29;20032;-75
2022/04/20 08:35:00;;;;;;;3.33;2.13;;;21.30;46.50;;;;;;4917496;29;20440;-75
2022/04/20 08:37:26;;;;;;;3.10;2.03;;;21.30;46.60;;;;;;4917329;29;20036;-75
2022/04/20 08:39:52;;;;;;;3.53;2.35;;;21.30;46.60;;;;;;4917337;29;20056;-75
2022/04/20 08:42:20;;;;;;;2.83;2.00;;;21.30;46.50;;;;;;4917263;29;20028;-75
2022/04/20 08:44:49;;;;;;;3.47;2.00;;;21.30;46.50;;;;;;4917350;29;20470;-75
2022/04/20 08:47:22;;;;;;;3.28;1.85;;;21.30;46.40;;;;;;4915883;29;20083;-75
2022/04/20 08:49:49;;;;;;;3.25;2.10;;;21.30;46.50;;;;;;4916118;29;20107;-75
2022/04/20 08:52:37;;;;;;;4.88;2.38;;;21.40;46.60;;;;;;4917009;29;20047;-75
2022/04/20 08:55:09;;;;;;;2.78;2.05;;;21.30;46.40;;;;;;4915938;29;20126;-75
2022/04/20 08:57:36;;;;;;;4.85;2.03;;;21.30;46.50;;;;;;4915599;29;20036;-75
2022/04/20 09:00:05;;;;;;;2.78;1.77;;;21.30;46.40;;;;;;4917191;29;20047;-75
2022/04/20 09:02:31;;;;;;;2.50;1.83;;;21.30;46.40;;;;;;4916717;29;20088;-75
2022/04/20 09:04:57;;;;;;;3.78;2.10;;;21.30;46.50;;;;;;4917152;29;20067;-74
2022/04/20 09:07:24;;;;;;;2.85;1.80;;;21.30;46.40;;;;;;4899684;29;20032;-74
2022/04/20 09:09:50;;;;;;;2.90;1.90;;;21.30;46.50;;;;;;4916781;29;20062;-75
2022/04/20 09:12:22;;;;;;;3.47;2.00;;;21.30;46.40;;;;;;4915631;29;20091;-74
2022/04/20 09:14:50;;;;;;;3.58;2.30;;;21.30;46.40;;;;;;4916836;29;20128;-75
2022/04/20 09:17:18;;;;;;;4.28;1.90;;;21.30;46.50;;;;;;4916216;29;20028;-74
2022/04/20 09:19:45;;;;;;;2.95;1.88;;;21.30;46.40;;;;;;4914556;29;20039;-75
2022/04/20 09:22:22;;;;;;;3.15;1.80;;;21.30;46.40;;;;;;4915345;29;20063;-74
2022/04/20 09:25:05;;;;;;;3.30;2.00;;;21.30;46.40;;;;;;4915560;29;20082;-74
2022/04/20 09:27:32;;;;;;;2.78;1.80;;;21.30;46.50;;;;;;4916054;29;20119;-73
2022/04/20 09:29:59;;;;;;;4.65;2.05;;;21.30;46.50;;;;;;4915060;29;20032;-74
2022/04/20 09:32:44;;;;;;;3.17;2.05;;;21.30;46.50;;;;;;4916319;29;20068;-74
2022/04/20 09:36:41;;;;;;;;;;;;;;;;;;;;;
2022/04/20 09:39:51;;;;;;;;;;;21.30;46.40;;;;;;4888146;29;20047;-74
2022/04/20 09:42:18;;;;;;;3.78;2.17;;;21.30;46.50;;;;;;4912462;29;19911;-74
2022/04/20 09:44:59;;;;;;;4.63;2.10;;;21.30;46.50;;;;;;4916442;29;20078;-74
2022/04/20 09:50:26;;;;;;;3.53;2.17;;;21.30;46.50;;;;;;4915125;29;20028;-74
2022/04/20 09:52:55;;;;;;;3.13;2.03;;;21.30;46.40;;;;;;4916608;29;20032;-74
2022/04/20 09:55:33;;;;;;;3.15;2.10;;;21.30;46.50;;;;;;4899686;29;20254;-74
2022/04/20 09:58:18;;;;;;;4.07;2.17;;;21.30;46.50;;;;;;4914750;29;20082;-74
2022/04/20 10:00:54;;;;;;;2.58;1.90;;;21.30;46.40;;;;;;4915911;29;20107;-74
2022/04/20 10:03:24;;;;;;;2.67;1.67;;;21.30;46.40;;;;;;4915894;29;20058;-74
2022/04/20 10:05:50;;;;;;;;;;;21.30;46.40;;;;;;4916371;29;20030;-74
2022/04/20 10:08:17;;;;;;;3.05;1.80;;;21.30;46.50;;;;;;4914550;29;20014;-74
2022/04/20 10:10:44;;;;;;;3.67;1.80;;;21.30;46.40;;;;;;4914597;29;20130;-74
2022/04/20 10:13:10;;;;;;;3.33;2.00;;;21.30;46.40;;;;;;4916136;29;20084;-73
2022/04/20 10:18:25;;;;;;;7.55;2.22;;;21.30;46.50;;;;;;4913919;29;20087;-74
2022/04/20 10:20:57;;;;;;;4.15;2.00;;;21.30;46.40;;;;;;4914519;29;20043;-74
2022/04/20 10:23:24;;;;;;;4.75;2.45;;;21.30;46.50;;;;;;4915385;29;20040;-74
2022/04/20 10:25:52;;;;;;;3.45;2.10;;;21.30;46.50;;;;;;4914542;29;20040;-74
2022/04/20 10:28:36;;;;;;;4.25;2.38;;;21.30;46.50;;;;;;4913898;29;20065;-74
2022/04/20 10:31:31;;;;;;;4.63;2.22;;;21.30;46.50;;;;;;4913996;29;20405;-74
2022/04/20 10:34:02;;;;;;;3.22;2.03;;;21.30;46.50;;;;;;4898689;29;20044;-74
2022/04/20 10:36:59;;;;;;;4.35;2.22;;;21.30;46.50;;;;;;4914179;29;20036;-74
2022/04/20 10:39:29;;;;;;;3.42;1.95;;;21.30;46.40;;;;;;4898300;29;20024;-74
2022/04/20 10:42:12;;;;;;;4.50;2.38;;;21.30;46.50;;;;;;4899473;29;20036;-74
2022/04/20 10:45:01;;;;;;;2.90;1.80;;;21.30;46.50;;;;;;4915254;29;20481;-74
2022/04/20 10:47:40;;;;;;;3.72;2.00;;;21.30;46.50;;;;;;4915256;29;20024;-74
2022/04/20 10:50:14;;;;;;;4.13;1.93;;;21.30;46.50;;;;;;4915274;29;20043;-74
2022/04/20 10:52:42;;;;;;;2.90;1.90;;;21.30;46.50;;;;;;4915067;29;20032;-74
2022/04/20 10:55:22;;;;;;;2.95;2.13;;;21.30;46.50;;;;;;4914012;29;20030;-73
2022/04/20 10:58:38;;;;;;;3.33;2.00;;;21.30;46.50;;;;;;4913483;29;20123;-74
2022/04/20 11:01:52;;;;;;;3.85;2.10;;;21.30;46.60;;;;;;4900832;29;20047;-73
2022/04/20 11:04:32;;;;;;;3.55;2.10;;;21.30;46.50;;;;;;4914796;29;20028;-74
2022/04/20 11:07:04;;;;;;;2.67;1.90;;;21.30;46.60;;;;;;4914955;29;20574;-74
2022/04/20 11:09:42;;;;;;;2.58;1.90;;;21.30;46.60;;;;;;4914567;29;20055;-74
2022/04/20 11:21:10;;;;;;;5.35;2.85;;;21.30;46.70;;;;;;4896899;29;20083;-73
2022/04/20 11:23:59;;;;;;;5.35;2.60;;;21.30;46.90;;;;;;4914553;29;20033;-73
2022/04/20 11:26:34;;;;;;;5.20;2.70;;;21.30;46.90;;;;;;4913885;29;20056;-74
2022/04/20 11:29:17;;;;;;;5.15;3.05;;;21.20;46.80;;;;;;4913340;29;20040;-74
2022/04/20 11:31:46;;;;;;;8.40;2.90;;;21.30;47.00;;;;;;4914763;29;20110;-74
2022/04/20 11:34:14;;;;;;;7.53;2.87;;;21.30;47.80;;;;;;4914895;29;20036;-74
2022/04/20 11:36:48;;;;;;;6.50;3.08;;;21.30;47.30;;;;;;4916258;29;20048;-74
2022/04/20 11:39:16;;;;;;;10.55;2.88;;;21.30;47.60;;;;;;4905014;29;20103;-75
2022/04/20 11:41:50;;;;;;;10.25;3.15;;;21.30;47.90;;;;;;4922186;29;20099;-73
2022/04/20 11:44:46;;;;;;;12.48;3.33;;;21.40;47.80;;;;;;4923262;29;20083;-73
2022/04/20 11:47:20;;;;;;;12.52;3.53;;;21.30;48.30;;;;;;4909953;29;20079;-74
2022/04/20 11:49:49;;;;;;;13.32;3.75;;;21.30;48.10;;;;;;4935869;29;20043;-74
2022/04/20 11:52:21;;;;;;;17.05;3.08;;;21.30;47.70;;;;;;4936177;29;20095;-73
2022/04/20 11:54:52;;;;;;;10.88;3.33;;;21.30;47.70;;;;;;4935929;29;20046;-72
2022/04/20 11:57:24;;;;;;;13.13;3.20;;;21.30;48.00;;;;;;4935617;29;20102;-73
2022/04/20 11:59:51;;;;;;;13.27;3.33;;;21.30;48.00;;;;;;4935583;29;20568;-74
2022/04/20 12:02:19;;;;;;;13.98;3.08;;;21.40;48.00;;;;;;4920225;29;20122;-73
2022/04/20 12:05:05;;;;;;;9.07;3.17;;;21.40;48.30;;;;;;4920030;29;20047;-73
2022/04/20 12:07:32;;;;;;;10.50;3.10;;;21.40;48.20;;;;;;4936571;29;20035;-73
2022/04/20 12:09:58;;;;;;;7.30;2.80;;;21.40;48.40;;;;;;4936729;29;20115;-74
2022/04/20 12:12:24;;;;;;;6.40;3.10;;;21.40;48.60;;;;;;4936919;29;20059;-75
2022/04/20 12:14:49;;;;;;;10.32;3.47;;;21.40;48.50;;;;;;4936738;29;20411;-72
2022/04/20 12:17:20;;;;;;;16.35;3.38;;;21.40;48.70;;;;;;4936618;29;20032;-73
2022/04/20 12:19:48;;;;;;;16.77;3.03;;;21.30;47.10;;;;;;4931830;29;20034;-72
2022/04/20 12:22:16;;;;;;;12.00;2.17;;;21.20;46.00;;;;;;4936698;29;20031;-72
2022/04/20 12:24:43;;;;;;;6.65;2.47;;;21.10;44.60;;;;;;4919841;29;20058;-72
2022/04/20 12:27:20;;;;;;;24.55;6.47;;;21.00;43.40;;;;;;4934085;29;20031;-72
2022/04/20 12:29:55;;;;;;;;;;;20.90;44.00;;;;;;4926374;29;20111;-72
2022/04/20 12:32:25;;;;;;;6.55;3.28;;;20.90;42.90;;;;;;4926319;29;19914;-72
2022/04/20 12:35:01;;;;;;;10.77;3.00;;;20.90;42.80;;;;;;4922301;29;20032;-72
2022/04/20 12:37:29;;;;;;;10.85;3.08;;;20.90;42.30;;;;;;4924779;29;20131;-72
2022/04/20 12:39:58;;;;;;;12.98;3.70;;;20.90;42.10;;;;;;4909277;29;20091;-72
2022/04/20 12:42:24;;;;;;;17.45;3.65;;;20.90;43.00;;;;;;4924843;29;20028;-73
2022/04/20 12:45:02;;;;;;;7.90;2.67;;;21.00;42.20;;;;;;4925437;29;20515;-73
2022/04/20 12:47:28;;;;;;;6.38;2.70;;;20.90;41.80;;;;;;4924470;29;20031;-71
2022/04/20 12:50:00;;;;;;;8.63;2.70;;;20.90;41.40;;;;;;4933001;29;20028;-73
2022/04/20 12:52:32;;;;;;;11.27;2.78;;;20.80;43.20;;;;;;4936161;29;20079;-72
2022/04/20 12:55:08;;;;;;;6.78;2.35;;;20.90;44.60;;;;;;4936009;29;20028;-73
2022/04/20 13:03:07;;;;;;;10.82;2.67;;;21.10;42.70;;;;;;4935931;29;20087;-73
2022/04/20 13:05:35;;;;;;;9.38;2.80;;;21.20;48.10;;;;;;4936026;29;20438;-73
2022/04/20 13:08:02;;;;;;;12.50;3.30;;;21.20;45.60;;;;;;4935674;29;20031;-73
2022/04/20 13:10:34;;;;;;;10.57;2.78;;;21.30;51.80;;;;;;4935707;29;20040;-73
2022/04/20 13:12:59;;;;;;;12.80;2.70;;;21.30;47.30;;;;;;4935535;29;20766;-74
2022/04/20 13:15:29;;;;;;;8.88;2.67;;;21.40;52.80;;;;;;4918900;29;20612;-74
2022/04/20 13:17:57;;;;;;;12.07;3.47;;;21.40;47.40;;;;;;4934311;29;20032;-73
2022/04/20 13:20:25;;;;;;;7.13;3.15;;;21.40;58.20;;;;;;4918707;29;20110;-74
2022/04/20 13:22:51;;;;;;;15.10;3.83;;;21.40;53.50;;;;;;4934435;29;20090;-73
2022/04/20 13:28:01;;;;;;;15.23;3.75;;;21.50;60.10;;;;;;4935391;29;20426;-73
2022/04/20 13:30:29;;;;;;;14.13;3.60;;;21.50;55.20;;;;;;4935533;29;20115;-74
2022/04/20 13:32:56;;;;;;;12.93;3.55;;;21.50;53.80;;;;;;4934170;29;20032;-73
2022/04/20 13:35:23;;;;;;;15.80;4.18;;;21.40;55.80;;;;;;4918222;29;20032;-74
2022/04/20 13:37:52;;;;;;;18.45;4.07;;;21.50;58.30;;;;;;4932467;29;20386;-75
2022/04/20 13:40:20;;;;;;;14.65;4.18;;;21.50;57.40;;;;;;4919675;29;20032;-74
2022/04/20 13:42:46;;;;;;;11.13;3.35;;;21.40;55.90;;;;;;4914957;29;20044;-74
2022/04/20 13:45:12;;;;;;;15.52;4.20;;;21.40;54.20;;;;;;4916387;29;20111;-74
2022/04/20 13:47:37;;;;;;;12.77;3.80;;;21.40;54.20;;;;;;4898850;29;20593;-74
2022/04/20 13:50:06;;;;;;;11.57;3.33;;;21.40;53.80;;;;;;4919361;29;20032;-73
2022/04/20 13:52:33;;;;;;;15.35;3.45;;;21.40;52.30;;;;;;4931154;29;20028;-73
2022/04/20 13:54:59;;;;;;;10.52;3.33;;;21.40;52.10;;;;;;4931448;29;20099;-74
2022/04/20 13:57:26;;;;;;;12.13;3.13;;;21.40;51.80;;;;;;4931746;29;20024;-73
2022/04/20 13:59:52;;;;;;;10.00;3.30;;;21.40;52.70;;;;;;4931508;29;20090;-74